Time;durP1;ratioP1;P1;durP2;ratioP2;P2;SDS_P1;SDS_P2;PMS_P1;PMS_P2;Temp;Humidity;BMP_temperature;BMP_pressure;BME280_temperature;BME280_humidity;BME280_pressure;Samples;Min_cycle;Max_cycle;Signal;HPM_P1;HPM_P2
2022/08/03 00:01:06;;;;;;;4.78;0.40;;;19.70;99.90;;;;;;4993620;28;20034;-71
2022/08/03 00:03:32;;;;;;;4.22;0.32;;;19.70;99.90;;;;;;4996728;28;20735;-70
2022/08/03 00:05:58;;;;;;;2.15;0.70;;;19.80;99.90;;;;;;4992394;28;20045;-71
2022/08/03 00:08:24;;;;;;;3.58;0.63;;;19.70;99.90;;;;;;4994560;28;20061;-71
2022/08/03 00:10:49;;;;;;;4.25;0.40;;;19.70;99.90;;;;;;4995420;28;20026;-68
2022/08/03 00:13:15;;;;;;;5.25;1.23;;;19.70;99.90;;;;;;4994372;28;20058;-71
2022/08/03 00:15:42;;;;;;;5.07;0.50;;;19.70;99.90;;;;;;4997709;28;20076;-72
2022/08/03 00:18:08;;;;;;;1.77;0.68;;;19.70;99.90;;;;;;4996390;28;20034;-72
2022/08/03 00:20:34;;;;;;;5.50;0.65;;;19.60;99.90;;;;;;4994004;28;20120;-70
2022/08/03 00:23:00;;;;;;;2.35;0.50;;;19.70;99.90;;;;;;4995285;28;20145;-69
2022/08/03 00:25:26;;;;;;;2.58;0.47;;;19.70;99.90;;;;;;5001113;28;20125;-70
2022/08/03 00:27:51;;;;;;;6.93;0.55;;;19.60;99.90;;;;;;4995266;28;20070;-72
2022/08/03 00:30:17;;;;;;;1.30;0.30;;;19.60;99.90;;;;;;4995765;28;20034;-69
2022/08/03 00:32:43;;;;;;;1.48;0.43;;;19.60;99.90;;;;;;4993849;28;20984;-71
2022/08/03 00:35:08;;;;;;;3.47;0.80;;;19.60;99.90;;;;;;4995287;28;20091;-72
2022/08/03 00:37:34;;;;;;;3.55;0.52;;;19.60;99.90;;;;;;4994307;28;20030;-72
2022/08/03 00:40:00;;;;;;;2.42;0.40;;;19.50;99.90;;;;;;4995890;28;20034;-69
2022/08/03 00:42:25;;;;;;;4.38;0.98;;;19.50;99.90;;;;;;5000619;28;20157;-71
2022/08/03 00:44:51;;;;;;;8.05;1.70;;;19.50;99.90;;;;;;4994532;28;20128;-71
2022/08/03 00:47:17;;;;;;;4.90;0.77;;;19.50;99.90;;;;;;4995465;28;20073;-70
2022/08/03 00:49:42;;;;;;;6.93;0.70;;;19.50;99.90;;;;;;4994561;28;20092;-71
2022/08/03 00:52:09;;;;;;;3.13;0.73;;;19.50;99.90;;;;;;5008720;28;20037;-72
2022/08/03 00:54:36;;;;;;;3.38;0.60;;;19.50;99.90;;;;;;4996688;28;20117;-71
2022/08/03 00:57:02;;;;;;;3.03;0.60;;;19.40;99.90;;;;;;4993206;28;20093;-70
2022/08/03 00:59:29;;;;;;;4.93;0.98;;;19.50;99.90;;;;;;4997278;28;20044;-72
2022/08/03 01:01:55;;;;;;;8.05;0.90;;;19.50;99.90;;;;;;4992246;28;20106;-70
2022/08/03 01:04:21;;;;;;;2.28;0.60;;;19.40;99.90;;;;;;4994859;28;20101;-71
2022/08/03 01:07:03;;;;;;;2.38;0.63;;;19.40;99.90;;;;;;4995003;28;20073;-70
2022/08/03 01:09:56;;;;;;;2.05;0.40;;;19.40;99.90;;;;;;4997236;28;20887;-71
2022/08/03 01:12:40;;;;;;;6.93;0.73;;;19.30;99.90;;;;;;4995134;28;20053;-70
2022/08/03 01:15:27;;;;;;;3.08;0.88;;;19.40;99.90;;;;;;5000915;28;20042;-71
2022/08/03 01:17:58;;;;;;;8.80;0.80;;;19.40;99.90;;;;;;4991168;28;20038;-72
2022/08/03 01:20:30;;;;;;;1.98;0.57;;;19.40;99.90;;;;;;5011562;28;20192;-71
2022/08/03 01:22:59;;;;;;;9.90;1.30;;;19.40;99.90;;;;;;4992917;28;20034;-70
2022/08/03 01:25:43;;;;;;;4.32;0.80;;;19.40;99.90;;;;;;5016740;28;20042;-72
2022/08/03 01:28:11;;;;;;;4.18;0.80;;;19.30;99.90;;;;;;4996956;28;20042;-72
2022/08/03 01:30:40;;;;;;;8.93;1.05;;;19.30;99.90;;;;;;4994700;28;20039;-71
2022/08/03 01:33:09;;;;;;;9.73;0.98;;;19.30;99.90;;;;;;4996867;28;20042;-71
2022/08/03 01:35:45;;;;;;;6.33;0.90;;;19.30;99.90;;;;;;5011063;28;20047;-71
2022/08/03 01:38:17;;;;;;;3.72;1.10;;;19.30;99.90;;;;;;4999635;28;20269;-71
2022/08/03 01:40:43;;;;;;;6.72;1.35;;;19.20;99.90;;;;;;4998261;28;20034;-70
2022/08/03 01:43:13;;;;;;;1.58;0.57;;;19.20;99.90;;;;;;5007264;28;20041;-70
2022/08/03 01:45:39;;;;;;;7.80;1.00;;;19.20;99.90;;;;;;4997634;28;20046;-71
2022/08/03 01:48:07;;;;;;;6.57;0.80;;;19.20;99.90;;;;;;4993989;28;20034;-71
2022/08/03 01:50:34;;;;;;;7.55;1.10;;;19.10;99.90;;;;;;5008657;28;20039;-70
2022/08/03 01:53:00;;;;;;;2.60;0.77;;;19.10;99.90;;;;;;4995053;28;20070;-72
2022/08/03 01:55:28;;;;;;;8.55;0.73;;;19.10;99.90;;;;;;5008545;28;20073;-71
2022/08/03 01:57:55;;;;;;;3.42;0.60;;;19.20;99.90;;;;;;4994563;28;20041;-71
2022/08/03 02:00:23;;;;;;;4.97;0.90;;;19.10;99.90;;;;;;4993567;28;20092;-71
2022/08/03 02:02:50;;;;;;;8.98;1.17;;;19.10;99.90;;;;;;4994090;28;20035;-70
2022/08/03 02:05:18;;;;;;;4.53;1.10;;;19.10;99.90;;;;;;4994275;28;20084;-70
2022/08/03 02:07:46;;;;;;;4.22;1.30;;;19.10;99.90;;;;;;4994928;28;20095;-72
2022/08/03 02:10:14;;;;;;;4.75;1.67;;;19.10;99.90;;;;;;4994489;28;20112;-72
2022/08/03 02:12:43;;;;;;;7.07;1.10;;;19.10;99.90;;;;;;4994182;28;20536;-71
2022/08/03 02:15:11;;;;;;;7.18;0.82;;;19.10;99.90;;;;;;5003318;28;20125;-71
2022/08/03 02:17:37;;;;;;;6.20;0.93;;;19.10;99.90;;;;;;4996026;28;20042;-72
2022/08/03 02:20:04;;;;;;;4.40;0.80;;;19.00;99.90;;;;;;4992840;28;20077;-69
2022/08/03 02:22:31;;;;;;;4.65;0.70;;;19.00;99.90;;;;;;4995865;28;20046;-72
2022/08/03 02:24:57;;;;;;;4.00;1.58;;;19.00;99.90;;;;;;4996597;28;20072;-71
2022/08/03 02:27:25;;;;;;;6.00;1.00;;;19.00;99.90;;;;;;4997297;28;20543;-72
2022/08/03 02:30:08;;;;;;;10.18;1.00;;;19.00;99.90;;;;;;4998013;28;20068;-72
2022/08/03 02:32:39;;;;;;;6.60;1.35;;;19.00;99.90;;;;;;4999743;28;20527;-71
2022/08/03 02:35:12;;;;;;;7.45;1.80;;;19.00;99.90;;;;;;4996409;28;20116;-72
2022/08/03 02:37:50;;;;;;;7.57;1.55;;;18.90;99.90;;;;;;4999119;28;20057;-70
2022/08/03 02:40:18;;;;;;;7.93;1.92;;;18.90;99.90;;;;;;4998315;28;20034;-70
2022/08/03 02:42:47;;;;;;;11.90;1.63;;;18.90;99.90;;;;;;4999341;28;20965;-71
2022/08/03 02:45:14;;;;;;;5.90;1.40;;;18.90;99.90;;;;;;4996531;28;20133;-71
2022/08/03 02:47:42;;;;;;;9.60;1.02;;;18.90;99.90;;;;;;4997095;28;20498;-72
2022/08/03 02:50:11;;;;;;;4.65;1.40;;;18.80;99.90;;;;;;4997124;28;20031;-71
2022/08/03 02:52:38;;;;;;;8.32;0.98;;;18.80;99.90;;;;;;4998349;28;20045;-71
2022/08/03 02:55:06;;;;;;;5.78;1.35;;;18.80;99.90;;;;;;4995992;28;20042;-71
2022/08/03 02:57:33;;;;;;;6.70;1.13;;;18.80;99.90;;;;;;4999152;28;20034;-71
2022/08/03 03:00:00;;;;;;;6.90;1.20;;;18.80;99.90;;;;;;4996497;28;20026;-70
2022/08/03 03:02:27;;;;;;;5.80;0.98;;;18.80;99.90;;;;;;4998584;28;20084;-70
2022/08/03 03:04:54;;;;;;;9.40;1.13;;;18.80;99.90;;;;;;4995733;28;20041;-71
2022/08/03 03:07:21;;;;;;;9.20;1.20;;;18.80;99.90;;;;;;4997504;28;20042;-71
2022/08/03 03:09:47;;;;;;;5.18;1.08;;;18.80;99.90;;;;;;4994930;28;20053;-71
2022/08/03 03:12:13;;;;;;;7.72;1.42;;;18.80;99.90;;;;;;4997721;28;20475;-71
2022/08/03 03:14:39;;;;;;;9.48;1.42;;;18.70;99.90;;;;;;5004166;28;20600;-71
2022/08/03 03:17:10;;;;;;;6.53;1.20;;;18.70;99.90;;;;;;5011698;28;20522;-69
2022/08/03 03:19:37;;;;;;;5.05;1.10;;;18.70;99.90;;;;;;4997801;28;20038;-71
2022/08/03 03:22:06;;;;;;;3.88;1.05;;;18.70;99.90;;;;;;4995752;28;20034;-71
2022/08/03 03:24:33;;;;;;;12.07;1.50;;;18.70;99.90;;;;;;4998046;28;20034;-71
2022/08/03 03:26:59;;;;;;;4.85;1.52;;;18.70;99.90;;;;;;5002927;28;20129;-72
2022/08/03 03:29:25;;;;;;;2.58;0.93;;;18.70;99.90;;;;;;4995896;28;20134;-71
2022/08/03 03:31:51;;;;;;;4.93;1.17;;;18.70;99.90;;;;;;5001483;28;20045;-70
2022/08/03 03:34:17;;;;;;;8.57;1.20;;;18.70;99.90;;;;;;4999297;28;20038;-73
2022/08/03 03:36:43;;;;;;;8.45;1.27;;;18.70;99.90;;;;;;5018122;28;20049;-71
2022/08/03 03:39:09;;;;;;;4.97;0.98;;;18.60;99.90;;;;;;5003062;28;20045;-72
2022/08/03 03:41:35;;;;;;;11.45;1.83;;;18.70;99.90;;;;;;5002438;28;20041;-71
2022/08/03 03:44:01;;;;;;;4.18;1.10;;;18.60;99.90;;;;;;5005081;28;20030;-71
2022/08/03 03:46:27;;;;;;;8.30;0.95;;;18.60;99.90;;;;;;5005985;28;20071;-72
2022/08/03 03:48:53;;;;;;;12.27;2.15;;;18.60;99.90;;;;;;5002456;28;20030;-69
2022/08/03 03:51:19;;;;;;;5.50;1.02;;;18.50;99.90;;;;;;4997297;28;20049;-68
2022/08/03 03:54:05;;;;;;;9.70;0.90;;;18.60;99.90;;;;;;4998096;28;20040;-71
2022/08/03 03:56:31;;;;;;;8.48;1.77;;;18.50;99.90;;;;;;4999069;28;20038;-72
2022/08/03 03:58:57;;;;;;;6.13;1.45;;;18.50;99.90;;;;;;4999318;28;20352;-70
2022/08/03 04:01:22;;;;;;;12.70;1.27;;;18.50;99.90;;;;;;5000025;28;20030;-70
2022/08/03 04:03:48;;;;;;;14.30;1.58;;;18.50;99.90;;;;;;5001123;28;20064;-70
2022/08/03 04:11:52;;;;;;;10.68;1.70;;;18.50;99.90;;;;;;4996976;28;20084;-69
2022/08/03 04:14:45;;;;;;;7.05;1.25;;;18.50;99.90;;;;;;5002638;28;20494;-72
2022/08/03 04:17:13;;;;;;;8.73;1.20;;;18.40;99.90;;;;;;4998282;28;20032;-70
2022/08/03 04:19:46;;;;;;;8.52;2.03;;;18.50;99.90;;;;;;4997476;28;20122;-70
2022/08/03 04:22:17;;;;;;;8.52;1.15;;;18.40;99.90;;;;;;4995351;28;20038;-69
2022/08/03 04:24:49;;;;;;;6.20;2.05;;;18.40;99.90;;;;;;5011327;28;20042;-69
2022/08/03 04:27:20;;;;;;;8.52;1.73;;;18.40;99.90;;;;;;4999337;28;20037;-69
2022/08/03 04:29:48;;;;;;;4.32;1.00;;;18.40;99.90;;;;;;5006159;28;20048;-69
2022/08/03 04:32:15;;;;;;;7.90;1.42;;;18.40;99.90;;;;;;5005227;28;20461;-70
2022/08/03 04:34:41;;;;;;;8.07;1.63;;;18.40;99.90;;;;;;5001491;28;20062;-69
2022/08/03 04:37:20;;;;;;;12.10;1.80;;;18.40;99.90;;;;;;4995434;28;20115;-69
2022/08/03 04:39:48;;;;;;;7.30;1.13;;;18.40;99.90;;;;;;5012956;28;20026;-70
2022/08/03 04:42:15;;;;;;;10.02;1.98;;;18.40;99.90;;;;;;4993476;28;20497;-72
2022/08/03 04:44:44;;;;;;;12.65;2.08;;;18.40;99.90;;;;;;4996484;28;20486;-71
2022/08/03 04:47:09;;;;;;;8.70;1.55;;;18.40;99.90;;;;;;4995135;28;20038;-71
2022/08/03 04:49:37;;;;;;;8.82;1.88;;;18.40;99.90;;;;;;4996391;28;20045;-72
2022/08/03 04:52:03;;;;;;;7.75;1.98;;;18.40;99.90;;;;;;4995433;28;20486;-71
2022/08/03 04:54:30;;;;;;;4.38;0.98;;;18.40;99.90;;;;;;4995532;28;20487;-71
2022/08/03 04:56:55;;;;;;;7.20;1.27;;;18.40;99.90;;;;;;4996813;28;20042;-71
2022/08/03 04:59:21;;;;;;;7.63;1.13;;;18.40;99.90;;;;;;4994086;28;20039;-71
2022/08/03 05:01:46;;;;;;;6.45;1.27;;;18.40;99.90;;;;;;4996664;28;20034;-72
2022/08/03 05:04:12;;;;;;;8.43;1.40;;;18.40;99.90;;;;;;4991533;28;20475;-72
2022/08/03 05:06:38;;;;;;;8.27;1.58;;;18.40;99.90;;;;;;5003659;28;20129;-70
2022/08/03 05:09:03;;;;;;;13.13;1.23;;;18.40;99.90;;;;;;5001539;28;20034;-73
2022/08/03 05:11:29;;;;;;;5.70;1.50;;;18.40;99.90;;;;;;5006058;28;20030;-73
2022/08/03 05:13:54;;;;;;;15.75;2.10;;;18.40;99.90;;;;;;5013897;28;20033;-71
2022/08/03 05:16:20;;;;;;;6.97;1.67;;;18.40;99.90;;;;;;4993763;28;20034;-71
2022/08/03 05:18:46;;;;;;;15.75;1.50;;;18.40;99.90;;;;;;4996500;28;20072;-72
2022/08/03 05:21:13;;;;;;;7.97;1.60;;;18.40;99.90;;;;;;4994386;28;20522;-69
2022/08/03 05:23:39;;;;;;;11.27;2.47;;;18.40;99.90;;;;;;5000518;28;20042;-69
2022/08/03 05:26:04;;;;;;;8.45;1.30;;;18.40;99.90;;;;;;4994877;28;20033;-70
2022/08/03 05:28:30;;;;;;;10.25;2.10;;;18.40;99.90;;;;;;5003391;28;20161;-69
2022/08/03 05:30:56;;;;;;;10.93;1.95;;;18.40;99.90;;;;;;5002374;28;20128;-70
2022/08/03 05:33:21;;;;;;;12.50;1.35;;;18.40;99.90;;;;;;5023763;28;20109;-67
2022/08/03 05:35:47;;;;;;;6.80;1.58;;;18.40;99.90;;;;;;5005256;28;20525;-70
2022/08/03 05:38:13;;;;;;;15.60;1.63;;;18.50;99.90;;;;;;5003678;28;20106;-70
2022/08/03 05:40:39;;;;;;;6.25;1.27;;;18.50;99.90;;;;;;5012716;28;20027;-68
2022/08/03 05:43:04;;;;;;;8.73;1.40;;;18.50;99.90;;;;;;5001264;28;20446;-70
2022/08/03 05:45:30;;;;;;;4.65;1.27;;;18.60;99.90;;;;;;5002085;28;20397;-70
2022/08/03 05:47:55;;;;;;;16.33;1.88;;;18.60;99.90;;;;;;4998985;28;20030;-69
2022/08/03 05:50:21;;;;;;;13.75;1.65;;;18.70;99.90;;;;;;4995394;28;20129;-68
2022/08/03 05:52:46;;;;;;;8.93;1.23;;;18.70;99.90;;;;;;5007430;28;20022;-70
2022/08/03 05:55:13;;;;;;;13.25;1.38;;;18.80;99.90;;;;;;4995601;28;20030;-70
2022/08/03 05:57:39;;;;;;;6.53;1.20;;;18.90;99.90;;;;;;4992353;28;20072;-72
2022/08/03 06:00:09;;;;;;;7.28;1.30;;;19.00;99.90;;;;;;4993559;28;20129;-68
2022/08/03 06:02:35;;;;;;;7.45;2.08;;;19.10;99.90;;;;;;4993198;28;20054;-69
2022/08/03 06:05:01;;;;;;;8.77;2.45;;;19.20;99.90;;;;;;4996279;28;20546;-70
2022/08/03 06:07:27;;;;;;;5.55;1.60;;;19.40;99.90;;;;;;4999006;28;20041;-70
2022/08/03 06:09:53;;;;;;;17.25;1.95;;;19.60;99.90;;;;;;4997737;28;20038;-70
2022/08/03 06:12:19;;;;;;;8.40;2.05;;;19.80;99.90;;;;;;4999592;28;20045;-70
2022/08/03 06:14:44;;;;;;;7.22;1.60;;;19.90;99.90;;;;;;5002966;28;20030;-68
2022/08/03 06:17:10;;;;;;;8.13;1.70;;;19.90;99.90;;;;;;4999402;28;20038;-69
2022/08/03 06:19:36;;;;;;;8.65;1.63;;;20.00;99.90;;;;;;4997668;28;20376;-70
2022/08/03 06:22:01;;;;;;;22.02;3.38;;;20.20;99.90;;;;;;4996391;28;20177;-71
2022/08/03 06:24:27;;;;;;;7.70;1.60;;;20.30;99.90;;;;;;4996803;28;20402;-70
2022/08/03 06:26:53;;;;;;;11.75;2.08;;;20.50;99.90;;;;;;5013585;28;20494;-69
2022/08/03 06:29:19;;;;;;;17.52;2.17;;;20.60;99.90;;;;;;5007673;28;20045;-70
2022/08/03 06:31:44;;;;;;;6.13;1.35;;;20.80;99.90;;;;;;4998381;28;20076;-68
2022/08/03 06:34:10;;;;;;;9.82;1.35;;;20.90;99.90;;;;;;4998793;28;20095;-69
2022/08/03 06:36:35;;;;;;;15.77;1.98;;;21.10;99.90;;;;;;4995799;28;20034;-72
2022/08/03 06:39:01;;;;;;;7.32;1.50;;;21.30;99.90;;;;;;4998265;28;20422;-71
2022/08/03 06:41:27;;;;;;;7.65;1.70;;;21.50;99.90;;;;;;4997988;28;20393;-72
2022/08/03 06:43:53;;;;;;;11.73;1.50;;;21.90;99.90;;;;;;4996371;28;20030;-72
2022/08/03 06:46:19;;;;;;;5.53;1.38;;;22.40;99.90;;;;;;4998924;28;20037;-72
2022/08/03 06:48:45;;;;;;;5.78;1.30;;;22.70;99.90;;;;;;4996090;28;20403;-72
2022/08/03 06:51:11;;;;;;;11.50;2.22;;;23.20;99.90;;;;;;4999237;28;20552;-71
2022/08/03 06:53:36;;;;;;;7.50;1.23;;;23.80;99.90;;;;;;4995955;28;20038;-72
2022/08/03 06:56:04;;;;;;;11.50;1.98;;;24.30;99.90;;;;;;4996869;28;22818;-72
2022/08/03 06:58:29;;;;;;;6.90;1.42;;;24.70;99.90;;;;;;4996911;28;20037;-72
2022/08/03 07:00:55;;;;;;;15.55;2.33;;;25.00;99.90;;;;;;4995852;28;20034;-69
2022/08/03 07:03:20;;;;;;;7.53;1.63;;;25.20;99.90;;;;;;4995876;28;20402;-72
2022/08/03 07:05:47;;;;;;;9.50;1.83;;;25.50;99.90;;;;;;4996053;28;20030;-70
2022/08/03 07:08:15;;;;;;;11.25;1.83;;;25.80;99.90;;;;;;4997846;28;20125;-72
2022/08/03 07:10:42;;;;;;;6.30;1.33;;;26.30;99.90;;;;;;4998875;28;20032;-72
2022/08/03 07:13:07;;;;;;;7.30;1.42;;;26.50;99.90;;;;;;4997142;28;20030;-69
2022/08/03 07:15:34;;;;;;;5.80;1.42;;;26.70;99.90;;;;;;5001357;28;20045;-70
2022/08/03 07:17:59;;;;;;;16.80;2.83;;;27.30;99.90;;;;;;4998589;28;20034;-72
2022/08/03 07:20:25;;;;;;;9.98;2.15;;;27.60;99.90;;;;;;4994030;28;20368;-71
2022/08/03 07:22:50;;;;;;;11.73;1.85;;;27.80;99.90;;;;;;4997194;28;20045;-72
2022/08/03 07:25:16;;;;;;;9.27;1.85;;;28.10;99.90;;;;;;5003411;28;20029;-71
2022/08/03 07:27:46;;;;;;;8.98;1.55;;;28.50;99.90;;;;;;4994530;28;20036;-75
2022/08/03 07:30:13;;;;;;;11.48;2.65;;;28.90;99.90;;;;;;5002728;28;20034;-70
2022/08/03 07:32:39;;;;;;;6.28;1.90;;;29.20;99.90;;;;;;5003558;28;20041;-70
2022/08/03 07:35:05;;;;;;;11.98;2.42;;;29.10;99.50;;;;;;5003541;28;20414;-70
2022/08/03 07:37:34;;;;;;;8.02;2.45;;;29.20;99.80;;;;;;5002500;28;20038;-71
2022/08/03 07:40:00;;;;;;;14.05;2.17;;;29.10;99.50;;;;;;5000279;28;20038;-71
2022/08/03 07:42:30;;;;;;;16.00;3.05;;;29.10;99.70;;;;;;5001203;28;20050;-71
2022/08/03 07:44:56;;;;;;;;;;;28.90;98.80;;;;;;5002411;28;20030;-71
2022/08/03 07:47:29;;;;;;;8.52;2.17;;;28.90;98.90;;;;;;5002458;28;19960;-71
2022/08/03 07:49:55;;;;;;;13.15;2.15;;;28.80;98.80;;;;;;5002353;28;20037;-70
2022/08/03 07:55:06;;;;;;;13.00;2.28;;;27.80;99.90;;;;;;5002556;28;20041;-71
2022/08/03 07:57:33;;;;;;;10.00;2.05;;;27.20;99.90;;;;;;5002410;28;20038;-71
2022/08/03 07:59:58;;;;;;;12.70;2.75;;;26.90;99.90;;;;;;5000878;28;20026;-72
2022/08/03 08:02:24;;;;;;;7.43;1.67;;;26.60;99.90;;;;;;5001833;28;20049;-71
2022/08/03 08:04:50;;;;;;;8.25;1.92;;;26.30;99.90;;;;;;5001483;28;20058;-69
2022/08/03 08:07:16;;;;;;;13.38;2.08;;;26.10;99.90;;;;;;5002203;28;20030;-69
2022/08/03 08:09:42;;;;;;;8.95;1.77;;;25.90;99.90;;;;;;5001889;28;20072;-70
2022/08/03 08:12:08;;;;;;;6.18;1.70;;;25.80;99.90;;;;;;5001395;28;20029;-71
2022/08/03 08:14:34;;;;;;;12.60;2.15;;;25.70;99.90;;;;;;5003388;28;20679;-70
2022/08/03 08:17:00;;;;;;;9.50;1.42;;;25.60;99.90;;;;;;5002197;28;20045;-70
2022/08/03 08:19:26;;;;;;;9.52;2.00;;;25.50;99.90;;;;;;5003123;28;20037;-68
2022/08/03 08:21:51;;;;;;;10.57;1.80;;;25.50;99.90;;;;;;5001837;28;20493;-70
2022/08/03 08:24:17;;;;;;;6.95;2.15;;;25.50;99.90;;;;;;5000596;28;20062;-70
2022/08/03 08:26:42;;;;;;;10.15;1.60;;;25.50;99.90;;;;;;5004483;28;20029;-70
2022/08/03 08:29:08;;;;;;;9.50;2.53;;;25.50;99.90;;;;;;4999014;28;20037;-70
2022/08/03 08:31:34;;;;;;;9.93;2.60;;;25.60;99.90;;;;;;5000742;28;20038;-68
2022/08/03 08:34:04;;;;;;;13.65;3.25;;;25.60;99.90;;;;;;5000238;28;20729;-70
2022/08/03 08:36:31;;;;;;;8.32;1.85;;;25.60;99.90;;;;;;5000192;28;20058;-70
2022/08/03 08:38:56;;;;;;;12.10;2.58;;;25.50;99.90;;;;;;5002236;28;20071;-69
2022/08/03 08:41:22;;;;;;;11.63;3.00;;;25.60;99.90;;;;;;5000207;28;20502;-70
2022/08/03 08:43:48;;;;;;;8.38;2.30;;;25.50;99.90;;;;;;4998217;28;20523;-71
2022/08/03 08:46:14;;;;;;;8.65;3.03;;;25.60;99.90;;;;;;4999446;28;20042;-70
2022/08/03 08:48:42;;;;;;;7.15;2.10;;;25.70;99.90;;;;;;5002620;28;20046;-70
2022/08/03 08:51:11;;;;;;;14.15;2.75;;;25.70;99.90;;;;;;4999531;28;20029;-70
2022/08/03 08:53:39;;;;;;;9.18;2.95;;;25.70;99.90;;;;;;5000404;28;20034;-70
2022/08/03 08:56:07;;;;;;;15.32;3.05;;;25.60;99.90;;;;;;4997036;28;20057;-69
2022/08/03 08:58:45;;;;;;;9.35;2.60;;;25.60;99.90;;;;;;4997825;28;20034;-70
2022/08/03 09:01:11;;;;;;;8.13;3.17;;;25.70;99.90;;;;;;5000877;28;20065;-71
2022/08/03 09:03:37;;;;;;;8.32;3.28;;;25.70;99.90;;;;;;4998703;28;20494;-70
2022/08/03 09:06:03;;;;;;;12.13;2.67;;;25.80;99.90;;;;;;5000589;28;21840;-69
2022/08/03 09:08:31;;;;;;;17.50;2.92;;;25.80;99.90;;;;;;4999729;28;20117;-70
2022/08/03 09:10:57;;;;;;;17.33;2.90;;;25.80;99.90;;;;;;4999884;28;20034;-71
2022/08/03 09:13:22;;;;;;;17.17;3.42;;;25.90;99.90;;;;;;5000967;28;20033;-70
2022/08/03 09:16:07;;;;;;;7.30;2.40;;;26.00;99.90;;;;;;4999073;28;20342;-70
2022/08/03 09:18:32;;;;;;;10.20;2.50;;;26.10;99.90;;;;;;4999938;28;20144;-69
2022/08/03 09:21:22;;;;;;;10.32;3.15;;;26.10;99.90;;;;;;4998906;28;20526;-71
2022/08/03 09:23:54;;;;;;;12.90;3.22;;;26.30;99.90;;;;;;4999487;28;20038;-71
2022/08/03 09:26:24;;;;;;;11.95;3.25;;;26.30;99.90;;;;;;5000127;28;20936;-71
2022/08/03 09:28:57;;;;;;;15.70;3.22;;;26.40;99.90;;;;;;5000774;28;20085;-70
2022/08/03 09:31:41;;;;;;;9.73;2.78;;;26.40;99.90;;;;;;5000007;28;20571;-70
2022/08/03 09:34:09;;;;;;;7.93;2.25;;;26.40;99.90;;;;;;4996074;28;20026;-69
2022/08/03 09:36:46;;;;;;;11.77;2.63;;;26.40;99.90;;;;;;4999810;28;20053;-70
2022/08/03 09:39:22;;;;;;;15.93;3.10;;;26.50;99.90;;;;;;5000016;28;20057;-70
2022/08/03 09:42:04;;;;;;;12.85;3.35;;;26.60;99.90;;;;;;5004007;28;20061;-72
2022/08/03 09:44:41;;;;;;;12.98;3.67;;;26.70;99.90;;;;;;5001518;28;20929;-70
2022/08/03 09:47:08;;;;;;;9.18;2.38;;;26.70;99.90;;;;;;5000918;28;20041;-70
2022/08/03 09:49:34;;;;;;;9.02;1.75;;;26.70;99.90;;;;;;5002645;28;20048;-70
2022/08/03 09:52:10;;;;;;;15.45;2.58;;;26.90;99.90;;;;;;5004164;28;20038;-70
2022/08/03 09:54:36;;;;;;;15.27;2.90;;;27.10;99.90;;;;;;5000140;28;20038;-70
2022/08/03 09:57:01;;;;;;;8.15;2.92;;;27.10;99.90;;;;;;5003999;28;20652;-71
2022/08/03 09:59:29;;;;;;;8.02;2.63;;;27.20;99.90;;;;;;5003883;28;20034;-72
2022/08/03 10:01:56;;;;;;;10.70;2.67;;;27.20;99.90;;;;;;5003834;28;20038;-69
2022/08/03 10:04:23;;;;;;;14.98;2.80;;;27.30;99.90;;;;;;5002685;28;20041;-71
2022/08/03 10:07:22;;;;;;;7.93;2.28;;;27.20;99.90;;;;;;5006675;28;20054;-71
2022/08/03 10:09:58;;;;;;;6.97;2.35;;;27.40;99.90;;;;;;4959443;28;20046;-72
2022/08/03 10:12:25;;;;;;;8.93;2.08;;;27.50;99.90;;;;;;5004772;28;20053;-70
2022/08/03 10:14:51;;;;;;;12.95;2.72;;;27.50;99.90;;;;;;5006106;28;20120;-71
2022/08/03 10:17:18;;;;;;;7.60;1.38;;;27.60;99.90;;;;;;5005574;28;20038;-72
2022/08/03 10:19:45;;;;;;;7.75;1.73;;;27.80;99.90;;;;;;5002210;28;20095;-71
2022/08/03 10:22:34;;;;;;;6.47;1.38;;;27.90;99.90;;;;;;5001855;28;20501;-70
2022/08/03 10:25:13;;;;;;;7.53;1.58;;;27.90;99.90;;;;;;4995982;28;20476;-70
2022/08/03 10:27:40;;;;;;;8.48;2.35;;;27.90;99.90;;;;;;5005186;28;20072;-72
2022/08/03 10:30:09;;;;;;;6.90;1.58;;;28.00;99.90;;;;;;5002912;28;20498;-71
2022/08/03 10:32:47;;;;;;;13.57;2.05;;;28.10;99.70;;;;;;4998774;28;20048;-71
2022/08/03 10:35:15;;;;;;;7.63;1.70;;;28.20;99.90;;;;;;5001790;28;20445;-71
2022/08/03 10:37:43;;;;;;;9.65;1.95;;;28.20;99.90;;;;;;5003233;28;20134;-73
2022/08/03 10:40:13;;;;;;;9.32;2.05;;;28.30;99.90;;;;;;4999758;28;20029;-71
2022/08/03 10:42:42;;;;;;;8.88;1.58;;;28.40;99.90;;;;;;5003050;28;20071;-71
2022/08/03 10:45:16;;;;;;;12.90;1.42;;;28.50;98.90;;;;;;5000920;28;20124;-72
2022/08/03 10:47:43;;;;;;;9.48;1.35;;;28.50;98.70;;;;;;5005156;28;20430;-69
2022/08/03 10:50:09;;;;;;;10.70;2.00;;;28.50;97.90;;;;;;5001188;28;20526;-71
2022/08/03 10:52:35;;;;;;;10.75;1.90;;;28.50;98.40;;;;;;5003533;28;20053;-72
2022/08/03 10:57:49;;;;;;;3.78;1.30;;;28.60;98.30;;;;;;5000505;28;20041;-71
2022/08/03 11:00:18;;;;;;;;;;;28.60;98.60;;;;;;5000875;28;20117;-71
2022/08/03 11:03:15;;;;;;;6.00;1.50;;;28.60;99.20;;;;;;5004322;28;19960;-70
2022/08/03 11:05:47;;;;;;;6.63;1.30;;;28.80;98.30;;;;;;5001276;28;20038;-71
2022/08/03 11:08:35;;;;;;;8.18;1.67;;;28.80;98.40;;;;;;5020090;28;20034;-72
2022/08/03 11:11:22;;;;;;;5.93;1.60;;;28.90;97.60;;;;;;5007121;28;20053;-70
2022/08/03 11:14:00;;;;;;;4.50;0.93;;;28.90;97.30;;;;;;5003638;28;20045;-72
2022/08/03 11:16:27;;;;;;;7.53;1.42;;;28.90;97.10;;;;;;5006583;28;20513;-70
2022/08/03 11:19:01;;;;;;;9.20;1.17;;;28.90;96.90;;;;;;5003569;28;20398;-70
2022/08/03 11:21:50;;;;;;;9.07;1.92;;;29.00;97.40;;;;;;4999376;28;20045;-71
2022/08/03 11:24:35;;;;;;;8.18;1.67;;;29.00;97.20;;;;;;4999430;28;20044;-72
2022/08/03 11:27:26;;;;;;;6.28;1.58;;;29.10;96.90;;;;;;5003314;28;20046;-71
2022/08/03 11:30:12;;;;;;;8.75;1.20;;;29.10;97.20;;;;;;5000851;28;20053;-72
2022/08/03 11:32:56;;;;;;;4.72;0.95;;;29.20;97.00;;;;;;5013593;28;20558;-72
2022/08/03 11:35:34;;;;;;;5.72;1.30;;;29.20;96.10;;;;;;5016004;28;20034;-72
2022/08/03 11:38:04;;;;;;;4.65;1.35;;;29.20;95.10;;;;;;4995726;28;20099;-72
2022/08/03 11:40:43;;;;;;;11.63;1.63;;;29.20;95.20;;;;;;4999979;28;20087;-70
2022/08/03 11:43:22;;;;;;;16.35;1.92;;;29.20;95.40;;;;;;4995322;28;20072;-72
2022/08/03 11:46:04;;;;;;;6.47;1.30;;;29.20;95.90;;;;;;4997188;28;20149;-72
2022/08/03 11:48:39;;;;;;;3.95;0.90;;;29.20;95.80;;;;;;4997246;28;20579;-72
2022/08/03 11:51:17;;;;;;;8.38;1.70;;;29.20;94.90;;;;;;4995713;28;20104;-72
2022/08/03 11:53:43;;;;;;;5.35;1.50;;;29.10;94.80;;;;;;4998932;28;20044;-72
2022/08/03 11:56:09;;;;;;;6.20;1.52;;;29.10;95.00;;;;;;4996995;28;20042;-72
2022/08/03 11:58:34;;;;;;;11.00;1.40;;;29.10;95.30;;;;;;4999835;28;20030;-71
2022/08/03 12:01:04;;;;;;;5.93;0.85;;;29.10;95.60;;;;;;4998902;28;20111;-72
2022/08/03 12:03:33;;;;;;;3.03;1.00;;;29.00;94.70;;;;;;4998827;28;20494;-72
2022/08/03 12:06:01;;;;;;;4.05;1.42;;;29.10;94.40;;;;;;4998008;28;20038;-70
2022/08/03 12:08:26;;;;;;;6.85;1.20;;;29.00;94.50;;;;;;4999578;28;20563;-70
2022/08/03 12:10:53;;;;;;;6.00;1.35;;;29.00;94.20;;;;;;4997116;28;20053;-70
2022/08/03 12:13:20;;;;;;;9.25;1.85;;;29.00;93.60;;;;;;4999820;28;20034;-73
2022/08/03 12:15:57;;;;;;;12.43;2.22;;;28.90;93.80;;;;;;4998082;28;20042;-72
2022/08/03 12:18:24;;;;;;;6.05;1.38;;;29.00;93.90;;;;;;4999013;28;20072;-71
2022/08/03 12:20:51;;;;;;;7.43;1.75;;;29.00;94.50;;;;;;4999491;28;20053;-70
2022/08/03 12:23:18;;;;;;;5.25;1.85;;;29.00;94.80;;;;;;4996357;28;20038;-72
2022/08/03 12:25:45;;;;;;;8.38;2.28;;;29.10;94.90;;;;;;4996475;28;20053;-73
2022/08/03 12:28:17;;;;;;;6.97;2.00;;;29.00;94.20;;;;;;4998139;28;20042;-71
2022/08/03 12:30:47;;;;;;;5.47;1.80;;;28.90;94.40;;;;;;4998703;28;20687;-72
2022/08/03 12:33:15;;;;;;;6.57;1.67;;;29.00;94.80;;;;;;4996331;28;20729;-71
2022/08/03 12:35:41;;;;;;;5.32;1.98;;;28.90;94.90;;;;;;4998845;28;20034;-71
2022/08/03 12:38:06;;;;;;;5.85;1.40;;;28.90;94.60;;;;;;4999098;28;20181;-71
2022/08/03 12:40:32;;;;;;;8.45;1.48;;;28.80;95.10;;;;;;4996143;28;20038;-70
2022/08/03 12:42:58;;;;;;;3.45;1.30;;;28.90;95.30;;;;;;4988526;28;20030;-71
2022/08/03 12:45:26;;;;;;;7.10;1.20;;;29.00;95.50;;;;;;4983083;28;20128;-72
2022/08/03 12:47:59;;;;;;;6.60;1.90;;;29.00;95.20;;;;;;4985344;28;20120;-73
2022/08/03 12:50:28;;;;;;;3.83;1.20;;;29.00;95.60;;;;;;4984917;28;20034;-70
2022/08/03 12:52:54;;;;;;;8.40;1.58;;;28.90;95.80;;;;;;4987039;28;20057;-73
2022/08/03 12:55:21;;;;;;;5.53;1.50;;;29.00;96.10;;;;;;4987824;28;20069;-72
2022/08/03 12:57:47;;;;;;;5.75;1.65;;;29.10;96.00;;;;;;4985582;28;20034;-69
2022/08/03 13:00:15;;;;;;;8.43;1.92;;;29.10;95.20;;;;;;4983415;28;20038;-72
2022/08/03 13:02:42;;;;;;;10.80;1.75;;;29.10;95.10;;;;;;4983376;28;20038;-71
2022/08/03 13:05:13;;;;;;;8.60;1.67;;;29.20;95.00;;;;;;4983096;28;20026;-71